Time;durP1;ratioP1;P1;durP2;ratioP2;P2;SDS_P1;SDS_P2;PMS_P1;PMS_P2;Temp;Humidity;BMP_temperature;BMP_pressure;BME280_temperature;BME280_humidity;BME280_pressure;Samples;Min_cycle;Max_cycle;Signal;HPM_P1;HPM_P2
2023/09/14 00:01:11;;;;;;;7.93;2.80;;;11.80;99.90;;;;;;5093677;28;20194;-84
2023/09/14 00:03:38;;;;;;;12.30;2.70;;;11.80;99.90;;;;;;5093315;28;20201;-84
2023/09/14 00:06:05;;;;;;;8.07;2.77;;;11.70;99.90;;;;;;5095487;28;20214;-85
2023/09/14 00:08:32;;;;;;;8.73;2.30;;;11.70;99.90;;;;;;5094063;28;20200;-81
2023/09/14 00:11:00;;;;;;;7.07;2.00;;;11.70;99.90;;;;;;5094676;28;20212;-83
2023/09/14 00:13:27;;;;;;;7.17;2.60;;;11.70;99.90;;;;;;5095823;28;20221;-81
2023/09/14 00:15:55;;;;;;;8.80;2.50;;;11.60;99.90;;;;;;5088118;28;20609;-84
2023/09/14 00:18:22;;;;;;;5.77;2.20;;;11.80;99.90;;;;;;5095600;28;20209;-84
2023/09/14 00:20:52;;;;;;;7.07;2.53;;;11.60;99.90;;;;;;5095011;28;20233;-83
2023/09/14 00:23:19;;;;;;;9.93;2.53;;;11.60;99.90;;;;;;5095680;28;20557;-81
2023/09/14 00:25:46;;;;;;;10.90;2.43;;;11.60;99.90;;;;;;5087603;28;20233;-83
2023/09/14 00:28:13;;;;;;;9.30;2.63;;;11.60;99.90;;;;;;5088327;28;20201;-83
2023/09/14 00:30:39;;;;;;;7.53;2.27;;;11.50;99.90;;;;;;5094892;28;20209;-81
2023/09/14 00:33:08;;;;;;;6.10;2.87;;;11.40;99.90;;;;;;5087670;28;20193;-82
2023/09/14 00:35:35;;;;;;;8.73;2.40;;;11.30;99.90;;;;;;5093617;28;20220;-83
2023/09/14 00:38:02;;;;;;;10.77;2.37;;;11.30;99.90;;;;;;5094659;28;20210;-84
2023/09/14 00:40:29;;;;;;;7.57;2.50;;;11.30;99.90;;;;;;5095302;28;20198;-82
2023/09/14 00:42:56;;;;;;;5.97;2.10;;;11.40;99.90;;;;;;5091448;28;20292;-81
2023/09/14 00:45:23;;;;;;;8.03;2.60;;;11.40;99.90;;;;;;5101393;28;20257;-84
2023/09/14 00:47:52;;;;;;;9.23;2.20;;;11.40;99.90;;;;;;5086630;28;20254;-83
2023/09/14 00:50:21;;;;;;;8.30;2.10;;;11.40;99.90;;;;;;5091624;28;20285;-82
2023/09/14 00:52:50;;;;;;;6.77;2.53;;;11.40;99.90;;;;;;5090131;28;20228;-84
2023/09/14 00:55:18;;;;;;;9.17;3.00;;;11.40;99.90;;;;;;5091897;28;20202;-83
2023/09/14 00:57:47;;;;;;;7.17;2.20;;;11.40;99.90;;;;;;5083251;28;20214;-85
2023/09/14 01:00:16;;;;;;;9.97;2.33;;;11.30;99.90;;;;;;5085118;28;20659;-82
2023/09/14 01:02:43;;;;;;;7.47;2.70;;;11.30;99.90;;;;;;5091281;28;20307;-83
2023/09/14 01:05:12;;;;;;;8.33;1.87;;;11.30;99.90;;;;;;5094637;28;20232;-83
2023/09/14 01:07:41;;;;;;;4.07;1.90;;;11.20;99.90;;;;;;5093395;28;20216;-84
2023/09/14 01:10:10;;;;;;;5.10;2.07;;;11.20;99.90;;;;;;5085855;28;20263;-83
2023/09/14 01:12:37;;;;;;;6.97;2.07;;;11.20;99.90;;;;;;5093945;28;20194;-81
2023/09/14 01:15:10;;;;;;;6.23;2.10;;;11.30;99.90;;;;;;5089848;28;20260;-84
2023/09/14 01:17:44;;;;;;;6.53;2.20;;;11.30;99.90;;;;;;5093951;28;20213;-81
2023/09/14 01:20:33;;;;;;;4.77;1.87;;;11.20;99.90;;;;;;5090345;28;20244;-81
2023/09/14 01:23:10;;;;;;;7.63;2.20;;;11.10;99.90;;;;;;5093957;28;20574;-82
2023/09/14 01:25:44;;;;;;;8.80;2.30;;;11.10;99.90;;;;;;5097376;28;20221;-82
2023/09/14 01:28:11;;;;;;;7.43;2.33;;;11.10;99.90;;;;;;5086265;28;20198;-82
2023/09/14 01:30:38;;;;;;;6.93;2.17;;;11.00;99.90;;;;;;5092874;28;20209;-83
2023/09/14 01:33:06;;;;;;;8.33;2.37;;;11.10;99.90;;;;;;5089621;28;20200;-81
2023/09/14 01:35:37;;;;;;;9.20;3.13;;;11.10;99.90;;;;;;5094524;28;20197;-83
2023/09/14 01:38:05;;;;;;;5.67;2.40;;;10.90;99.90;;;;;;5089138;28;20210;-82
2023/09/14 01:40:34;;;;;;;5.63;1.80;;;10.80;99.90;;;;;;5093700;28;20224;-81
2023/09/14 01:43:03;;;;;;;10.03;2.03;;;10.90;99.90;;;;;;5086342;28;20213;-81
2023/09/14 01:45:32;;;;;;;6.13;2.30;;;10.90;99.90;;;;;;5100952;28;20292;-81
2023/09/14 01:47:59;;;;;;;7.37;2.13;;;10.90;99.90;;;;;;5084892;28;20233;-81
2023/09/14 01:50:26;;;;;;;9.97;2.30;;;10.60;99.90;;;;;;5082631;28;20325;-81
2023/09/14 01:52:53;;;;;;;6.97;2.00;;;10.60;99.90;;;;;;5091799;28;20610;-81
2023/09/14 01:55:20;;;;;;;4.23;1.90;;;10.50;99.90;;;;;;5089640;28;20202;-82
2023/09/14 01:57:47;;;;;;;7.20;2.23;;;10.60;99.90;;;;;;5080355;28;20252;-81
2023/09/14 02:05:18;;;;;;;5.93;2.40;;;10.80;99.90;;;;;;5032641;28;20211;-82
2023/09/14 02:07:45;;;;;;;6.63;2.70;;;10.60;99.90;;;;;;5035371;28;20196;-85
2023/09/14 02:10:12;;;;;;;6.73;2.30;;;10.60;99.90;;;;;;5035268;28;20291;-83
2023/09/14 02:12:38;;;;;;;7.10;2.03;;;10.70;99.90;;;;;;5035028;28;20223;-82
2023/09/14 02:15:08;;;;;;;5.53;2.27;;;10.70;99.90;;;;;;5034887;28;20205;-83
2023/09/14 02:17:35;;;;;;;8.63;2.50;;;10.50;99.90;;;;;;5035110;28;20232;-84
2023/09/14 02:20:02;;;;;;;10.00;2.50;;;10.40;99.90;;;;;;5035317;28;20302;-85
2023/09/14 02:22:31;;;;;;;5.37;2.00;;;10.40;99.90;;;;;;5034955;28;20740;-84
2023/09/14 02:24:57;;;;;;;7.47;2.20;;;10.50;99.90;;;;;;5034361;28;20571;-85
2023/09/14 02:27:24;;;;;;;9.27;2.77;;;10.70;99.90;;;;;;5034623;28;20200;-84
2023/09/14 02:29:53;;;;;;;4.87;1.77;;;10.60;99.90;;;;;;5034468;28;20208;-84
2023/09/14 02:32:20;;;;;;;5.00;2.43;;;10.70;99.90;;;;;;5034259;28;20215;-85
2023/09/14 02:34:48;;;;;;;10.53;2.23;;;10.50;99.90;;;;;;5034435;28;20663;-83
2023/09/14 02:37:14;;;;;;;4.53;2.20;;;10.30;99.90;;;;;;5034141;28;20306;-85
2023/09/14 02:39:43;;;;;;;6.03;1.80;;;10.40;99.90;;;;;;5034701;28;20215;-83
2023/09/14 02:42:10;;;;;;;12.40;6.03;;;10.40;99.90;;;;;;5035071;28;20203;-82
2023/09/14 02:44:37;;;;;;;7.53;3.93;;;10.50;99.90;;;;;;5035313;28;20295;-83
2023/09/14 02:47:04;;;;;;;6.27;2.30;;;10.40;99.90;;;;;;5038331;28;20204;-82
2023/09/14 02:49:31;;;;;;;7.90;2.60;;;10.40;99.90;;;;;;5039129;28;20206;-83
2023/09/14 02:51:58;;;;;;;9.17;2.33;;;10.50;99.90;;;;;;5038698;28;20220;-83
2023/09/14 02:54:25;;;;;;;6.03;2.47;;;10.30;99.90;;;;;;5039337;28;20232;-82
2023/09/14 02:56:53;;;;;;;5.80;2.37;;;10.40;99.90;;;;;;5038691;28;20219;-81
2023/09/14 02:59:20;;;;;;;7.07;2.30;;;10.40;99.90;;;;;;5038556;28;20204;-85
2023/09/14 03:01:49;;;;;;;9.23;2.90;;;10.40;99.90;;;;;;5038602;28;20212;-80
2023/09/14 03:04:16;;;;;;;7.40;3.07;;;10.40;99.90;;;;;;5037993;28;20246;-82
2023/09/14 03:06:43;;;;;;;3.07;1.90;;;10.40;99.90;;;;;;5038203;28;20235;-82
2023/09/14 03:09:10;;;;;;;5.63;2.37;;;10.50;99.90;;;;;;5038606;28;20234;-82
2023/09/14 03:11:37;;;;;;;4.23;2.07;;;10.30;99.90;;;;;;5038232;28;20219;-82
2023/09/14 03:14:05;;;;;;;8.20;2.70;;;10.50;99.90;;;;;;5038042;28;20228;-83
2023/09/14 03:16:31;;;;;;;8.07;2.10;;;10.40;99.90;;;;;;5038365;28;20241;-83
2023/09/14 03:18:58;;;;;;;7.30;2.37;;;10.40;99.90;;;;;;5038495;28;20736;-84
2023/09/14 03:21:27;;;;;;;8.23;2.20;;;10.30;99.90;;;;;;5037925;28;20207;-83
2023/09/14 03:23:54;;;;;;;8.97;2.43;;;10.40;99.90;;;;;;5037306;28;20231;-84
2023/09/14 03:26:23;;;;;;;7.47;2.90;;;10.40;99.90;;;;;;5037625;28;20212;-83
2023/09/14 03:28:50;;;;;;;5.97;1.83;;;10.40;99.90;;;;;;5037908;28;20218;-79
2023/09/14 03:31:19;;;;;;;5.83;2.60;;;10.40;99.90;;;;;;5037806;28;20203;-81
2023/09/14 03:33:47;;;;;;;15.60;7.70;;;10.40;99.90;;;;;;5037525;28;20592;-81
2023/09/14 03:36:14;;;;;;;9.70;5.80;;;10.40;99.90;;;;;;5037508;28;20200;-81
2023/09/14 03:38:41;;;;;;;6.27;2.60;;;10.40;99.90;;;;;;5037391;28;20203;-81
2023/09/14 03:41:08;;;;;;;4.33;1.83;;;10.30;99.90;;;;;;5037332;28;20225;-82
2023/09/14 03:43:35;;;;;;;4.97;1.90;;;10.20;99.90;;;;;;5037001;28;20233;-83
2023/09/14 03:46:01;;;;;;;8.70;2.07;;;10.20;99.90;;;;;;5036587;28;20209;-82
2023/09/14 03:48:30;;;;;;;9.07;2.30;;;10.20;99.90;;;;;;5021431;28;20187;-81
2023/09/14 03:50:58;;;;;;;7.23;2.50;;;10.10;99.90;;;;;;5037199;28;20210;-80
2023/09/14 03:53:26;;;;;;;4.83;2.20;;;10.10;99.90;;;;;;5037351;28;20243;-83
2023/09/14 03:55:53;;;;;;;6.90;2.30;;;10.10;99.90;;;;;;5037290;28;20204;-82
2023/09/14 03:58:20;;;;;;;8.80;2.83;;;10.00;99.90;;;;;;5036111;28;20227;-83
2023/09/14 04:00:46;;;;;;;7.00;2.57;;;9.90;99.90;;;;;;5036628;28;20211;-84
2023/09/14 04:03:13;;;;;;;5.23;2.10;;;9.90;99.90;;;;;;5020556;28;20600;-83
2023/09/14 04:05:41;;;;;;;8.67;2.33;;;9.90;99.90;;;;;;5036716;28;20210;-83
2023/09/14 04:08:08;;;;;;;6.97;2.00;;;10.00;99.90;;;;;;5037155;28;20211;-83
2023/09/14 04:10:37;;;;;;;8.67;2.50;;;10.00;99.90;;;;;;5037070;28;20200;-82
2023/09/14 04:13:28;;;;;;;3.60;2.03;;;9.90;99.90;;;;;;5037203;28;20242;-82
2023/09/14 04:15:56;;;;;;;5.90;2.10;;;9.90;99.90;;;;;;5037221;28;20204;-82
2023/09/14 04:18:23;;;;;;;5.67;2.07;;;10.00;99.90;;;;;;5037520;28;20222;-83
2023/09/14 04:20:51;;;;;;;4.07;1.97;;;10.00;99.90;;;;;;5038133;28;20207;-83
2023/09/14 04:23:18;;;;;;;3.80;2.07;;;10.00;99.90;;;;;;5038451;28;20314;-83
2023/09/14 04:25:46;;;;;;;7.70;2.90;;;9.90;99.90;;;;;;5038460;28;20231;-83
2023/09/14 04:28:14;;;;;;;8.37;2.60;;;10.00;99.90;;;;;;5018437;28;20646;-82
2023/09/14 04:30:43;;;;;;;7.17;2.60;;;10.00;99.90;;;;;;5024262;28;20287;-83
2023/09/14 04:33:10;;;;;;;5.30;2.13;;;9.90;99.90;;;;;;5038006;28;20277;-82
2023/09/14 04:35:37;;;;;;;5.83;2.60;;;10.00;99.90;;;;;;5022948;28;20652;-83
2023/09/14 04:38:05;;;;;;;9.17;2.50;;;9.90;99.90;;;;;;5018341;28;20272;-81
2023/09/14 04:40:35;;;;;;;4.10;2.20;;;10.00;99.90;;;;;;5032939;28;20287;-83
2023/09/14 04:43:01;;;;;;;9.43;2.50;;;10.00;99.90;;;;;;5037918;28;20266;-83
2023/09/14 04:45:28;;;;;;;4.33;2.10;;;9.90;99.90;;;;;;5038515;28;20214;-83
2023/09/14 04:47:55;;;;;;;6.57;2.70;;;9.80;99.90;;;;;;5038376;28;20290;-83
2023/09/14 04:50:22;;;;;;;5.53;2.63;;;9.90;99.90;;;;;;5037747;28;20207;-83
2023/09/14 04:52:51;;;;;;;4.73;2.37;;;9.90;99.90;;;;;;5037683;28;20266;-83
2023/09/14 04:55:19;;;;;;;6.17;2.00;;;9.90;99.90;;;;;;5037569;28;20744;-83
2023/09/14 04:57:46;;;;;;;4.37;2.50;;;9.90;99.90;;;;;;5036614;28;20219;-83
2023/09/14 05:00:14;;;;;;;4.20;1.83;;;9.90;99.90;;;;;;5033663;28;20221;-83
2023/09/14 05:02:44;;;;;;;4.83;2.37;;;9.90;99.90;;;;;;5036351;28;20232;-83
2023/09/14 05:05:11;;;;;;;5.23;2.27;;;10.00;99.90;;;;;;5037249;28;20219;-83
2023/09/14 05:07:39;;;;;;;7.53;2.73;;;10.00;99.90;;;;;;5036876;28;20208;-83
2023/09/14 05:10:08;;;;;;;6.67;2.23;;;10.20;99.90;;;;;;5037687;28;20662;-83
2023/09/14 05:12:36;;;;;;;7.10;2.50;;;10.10;99.90;;;;;;5036205;28;20621;-83
2023/09/14 05:15:03;;;;;;;6.23;2.20;;;10.00;99.90;;;;;;5037896;28;20213;-83
2023/09/14 05:17:31;;;;;;;6.63;2.70;;;10.00;99.90;;;;;;5037380;28;20234;-83
2023/09/14 05:19:58;;;;;;;9.20;2.87;;;10.10;99.90;;;;;;5036347;28;20199;-82
2023/09/14 05:22:25;;;;;;;6.87;3.03;;;10.10;99.90;;;;;;5028390;28;20701;-83
2023/09/14 05:24:52;;;;;;;6.03;2.63;;;10.20;99.90;;;;;;5034452;28;20218;-83
2023/09/14 05:27:19;;;;;;;5.03;2.57;;;10.20;99.90;;;;;;5035156;28;20199;-83
2023/09/14 05:29:47;;;;;;;8.03;2.83;;;10.20;99.90;;;;;;5034973;28;20204;-82
2023/09/14 05:32:14;;;;;;;6.30;2.87;;;10.20;99.90;;;;;;5034182;28;20584;-81
2023/09/14 05:34:41;;;;;;;6.07;2.20;;;10.30;99.90;;;;;;5029648;28;20204;-82
2023/09/14 05:37:08;;;;;;;9.10;2.73;;;10.30;99.90;;;;;;5023603;28;20204;-81
2023/09/14 05:39:35;;;;;;;6.33;2.67;;;10.20;99.90;;;;;;5031501;28;20201;-83
2023/09/14 05:42:02;;;;;;;8.57;2.70;;;10.20;99.90;;;;;;5015605;28;20208;-83
2023/09/14 05:44:29;;;;;;;6.33;2.30;;;10.20;99.90;;;;;;5015058;28;20236;-83
2023/09/14 05:46:57;;;;;;;9.10;2.77;;;10.20;99.90;;;;;;5015149;28;20246;-83
2023/09/14 05:49:24;;;;;;;5.63;2.93;;;10.20;99.90;;;;;;5016329;28;20212;-84
2023/09/14 05:51:51;;;;;;;5.90;2.20;;;10.20;99.90;;;;;;5016073;28;20211;-83
2023/09/14 05:54:18;;;;;;;10.07;3.53;;;10.40;99.90;;;;;;5028104;28;20219;-84
2023/09/14 05:56:45;;;;;;;8.50;2.33;;;10.30;99.90;;;;;;5046988;28;20207;-81
2023/09/14 05:59:12;;;;;;;6.50;2.63;;;10.40;99.90;;;;;;5034919;28;20230;-83
2023/09/14 06:01:38;;;;;;;9.67;3.27;;;10.80;99.90;;;;;;5035490;28;20540;-83
2023/09/14 06:04:07;;;;;;;11.13;2.80;;;11.10;99.90;;;;;;5034974;28;20589;-83
2023/09/14 06:06:33;;;;;;;7.20;2.60;;;11.00;99.90;;;;;;5015360;28;20201;-82
2023/09/14 06:09:00;;;;;;;7.70;2.73;;;10.90;99.90;;;;;;5024184;28;20210;-81
2023/09/14 06:11:27;;;;;;;8.83;2.47;;;11.00;99.90;;;;;;5034728;28;20211;-82
2023/09/14 06:13:54;;;;;;;4.87;2.10;;;11.10;99.90;;;;;;5035249;28;20232;-82
2023/09/14 06:16:21;;;;;;;5.37;2.40;;;11.00;99.90;;;;;;5034508;28;20206;-80
2023/09/14 06:18:48;;;;;;;5.80;2.30;;;10.90;99.90;;;;;;5035770;28;20227;-81
2023/09/14 06:21:18;;;;;;;4.40;2.33;;;10.90;99.90;;;;;;5038731;28;20199;-83
2023/09/14 06:23:44;;;;;;;6.43;2.90;;;10.80;99.90;;;;;;5038865;28;20606;-83
2023/09/14 06:26:11;;;;;;;7.00;2.53;;;10.90;99.90;;;;;;5038863;28;20204;-83
2023/09/14 06:28:38;;;;;;;6.77;2.33;;;11.00;99.90;;;;;;5037528;28;20199;-80
2023/09/14 06:31:05;;;;;;;11.23;3.00;;;11.00;99.90;;;;;;5037929;28;20208;-83
2023/09/14 06:33:31;;;;;;;4.67;2.43;;;11.20;99.90;;;;;;5038251;28;20233;-83
2023/09/14 06:35:58;;;;;;;3.70;2.20;;;11.20;99.90;;;;;;5038019;28;20206;-81
2023/09/14 06:38:26;;;;;;;8.23;2.73;;;11.20;99.90;;;;;;5039127;28;20217;-83
2023/09/14 06:40:54;;;;;;;7.07;3.00;;;11.30;99.90;;;;;;5038132;28;20214;-83
2023/09/14 06:43:22;;;;;;;6.03;2.67;;;11.40;99.90;;;;;;5038271;28;20698;-83
2023/09/14 06:45:49;;;;;;;5.27;2.73;;;11.50;99.90;;;;;;5037837;28;20203;-82
2023/09/14 06:48:16;;;;;;;9.53;3.00;;;11.60;99.90;;;;;;5037848;28;20576;-81
2023/09/14 06:50:43;;;;;;;6.13;2.40;;;11.70;99.90;;;;;;5037161;28;20578;-83
2023/09/14 06:53:10;;;;;;;5.73;2.43;;;11.70;99.90;;;;;;5038851;28;20224;-83
2023/09/14 06:55:40;;;;;;;7.37;2.40;;;11.80;99.90;;;;;;5038402;28;20196;-82
2023/09/14 06:58:07;;;;;;;8.53;2.43;;;12.00;99.90;;;;;;5039097;28;20643;-83
2023/09/14 07:00:35;;;;;;;6.90;2.70;;;12.00;99.90;;;;;;5037653;28;20616;-82
2023/09/14 07:03:02;;;;;;;8.50;2.87;;;12.00;99.90;;;;;;5038189;28;20669;-83
2023/09/14 07:05:29;;;;;;;5.97;2.50;;;12.10;99.90;;;;;;5038521;28;20196;-82
2023/09/14 07:07:56;;;;;;;6.83;2.87;;;12.20;99.90;;;;;;5039288;28;20249;-82
2023/09/14 07:10:23;;;;;;;6.53;2.53;;;12.30;99.90;;;;;;5038721;28;20212;-84
2023/09/14 07:12:51;;;;;;;6.07;2.97;;;12.40;99.90;;;;;;5029843;28;20620;-84
2023/09/14 07:15:18;;;;;;;6.37;3.00;;;12.40;99.90;;;;;;5038381;28;20577;-81
2023/09/14 07:17:44;;;;;;;6.77;2.70;;;12.50;99.90;;;;;;5038092;28;20227;-83
2023/09/14 07:20:12;;;;;;;6.37;3.03;;;12.50;99.90;;;;;;5037494;28;20199;-84
2023/09/14 07:22:39;;;;;;;10.60;3.27;;;12.50;99.90;;;;;;5037717;28;20255;-83
2023/09/14 07:25:08;;;;;;;12.17;3.23;;;12.60;99.90;;;;;;5037813;28;20200;-84
2023/09/14 07:27:35;;;;;;;11.73;3.77;;;12.60;99.90;;;;;;5037876;28;20290;-83
2023/09/14 07:30:03;;;;;;;8.30;3.30;;;12.70;99.90;;;;;;5035891;28;20203;-82
2023/09/14 07:32:30;;;;;;;9.80;4.40;;;12.80;99.90;;;;;;5037277;28;20235;-83
2023/09/14 07:35:00;;;;;;;10.73;3.70;;;12.80;99.90;;;;;;5034071;28;20204;-84
2023/09/14 07:37:26;;;;;;;10.10;4.50;;;12.90;99.90;;;;;;5037809;28;20208;-81
2023/09/14 07:39:53;;;;;;;11.40;3.00;;;12.90;99.90;;;;;;5037314;28;20682;-82
2023/09/14 07:42:20;;;;;;;12.73;3.60;;;13.00;99.90;;;;;;5038058;28;20202;-81
2023/09/14 07:44:47;;;;;;;7.37;2.67;;;13.00;99.90;;;;;;5037768;28;20209;-81
2023/09/14 07:47:15;;;;;;;9.13;2.20;;;13.10;99.90;;;;;;5037179;28;20204;-83
2023/09/14 07:49:44;;;;;;;3.47;1.77;;;13.10;99.90;;;;;;5037584;28;20655;-83
2023/09/14 07:52:11;;;;;;;8.20;2.30;;;13.30;99.90;;;;;;5036739;28;20483;-82
2023/09/14 07:54:38;;;;;;;3.73;2.27;;;13.40;99.90;;;;;;5037095;28;20208;-81
2023/09/14 07:57:05;;;;;;;4.33;1.80;;;13.50;99.90;;;;;;5036821;28;20195;-83
2023/09/14 07:59:32;;;;;;;5.53;2.13;;;13.50;99.90;;;;;;5036447;28;20621;-83
2023/09/14 08:01:59;;;;;;;10.00;2.43;;;13.60;99.90;;;;;;5036532;28;20199;-83
2023/09/14 08:04:27;;;;;;;7.73;2.67;;;13.60;99.90;;;;;;5037387;28;20458;-84
2023/09/14 08:06:53;;;;;;;3.47;1.77;;;13.70;99.90;;;;;;5036694;28;20208;-84
2023/09/14 08:09:20;;;;;;;7.33;2.57;;;14.10;99.90;;;;;;5036238;28;20294;-83
2023/09/14 08:11:47;;;;;;;5.27;2.37;;;14.20;99.90;;;;;;5025437;28;20261;-83
2023/09/14 08:14:14;;;;;;;6.77;2.23;;;13.90;99.90;;;;;;5035696;28;20224;-83
2023/09/14 08:16:40;;;;;;;10.17;2.23;;;14.00;99.90;;;;;;5036651;28;20199;-84
2023/09/14 08:19:07;;;;;;;4.87;1.90;;;14.00;99.90;;;;;;5036128;28;20226;-81
2023/09/14 08:21:35;;;;;;;7.40;1.83;;;14.10;99.90;;;;;;5036293;28;20207;-83
2023/09/14 08:24:03;;;;;;;6.17;1.93;;;14.10;99.90;;;;;;5036565;28;20224;-82
2023/09/14 08:26:30;;;;;;;7.23;2.03;;;14.20;99.90;;;;;;5036853;28;20207;-82
2023/09/14 08:28:56;;;;;;;9.27;1.97;;;14.20;99.90;;;;;;5035586;28;20203;-81
2023/09/14 08:31:23;;;;;;;5.70;1.80;;;14.20;99.90;;;;;;5019432;28;20643;-83
2023/09/14 08:33:50;;;;;;;6.63;2.20;;;14.30;99.90;;;;;;5033739;28;20231;-82
2023/09/14 08:36:17;;;;;;;6.40;1.50;;;14.40;99.90;;;;;;5037080;28;20234;-82
2023/09/14 08:38:45;;;;;;;6.47;1.80;;;14.40;99.90;;;;;;5036961;28;20573;-81
2023/09/14 08:41:21;;;;;;;6.73;2.37;;;14.50;99.90;;;;;;5036558;28;20241;-81
2023/09/14 08:43:49;;;;;;;5.60;1.70;;;14.60;99.90;;;;;;5036170;28;20221;-81
2023/09/14 08:46:17;;;;;;;4.67;1.53;;;14.60;99.90;;;;;;5036061;28;20214;-82
2023/09/14 08:48:45;;;;;;;5.57;1.70;;;14.70;99.90;;;;;;5035753;28;20223;-83
2023/09/14 08:51:13;;;;;;;6.10;1.60;;;14.70;99.90;;;;;;5036188;28;20208;-83
2023/09/14 08:53:41;;;;;;;6.93;1.42;;;14.80;99.90;;;;;;5036135;28;20255;-82
2023/09/14 08:56:11;;;;;;;7.97;1.83;;;14.90;99.90;;;;;;5036274;28;20207;-81
2023/09/14 08:58:39;;;;;;;3.45;1.48;;;14.90;99.90;;;;;;5035525;28;20219;-84
2023/09/14 09:01:09;;;;;;;3.95;1.40;;;14.90;99.90;;;;;;5026735;28;20222;-84
2023/09/14 09:03:36;;;;;;;8.60;2.13;;;15.00;99.90;;;;;;5035558;28;20247;-83
2023/09/14 09:06:03;;;;;;;5.85;2.00;;;15.40;99.90;;;;;;5035335;28;20298;-83
2023/09/14 09:08:30;;;;;;;4.68;1.52;;;15.70;99.90;;;;;;5035312;28;20210;-83
2023/09/14 09:10:57;;;;;;;6.70;1.48;;;15.80;99.90;;;;;;5027439;28;20196;-83
2023/09/14 09:13:33;;;;;;;4.50;2.00;;;16.10;99.90;;;;;;5035958;28;20219;-84
2023/09/14 09:15:59;;;;;;;2.08;1.17;;;16.30;99.90;;;;;;5035512;28;20226;-83
2023/09/14 09:18:26;;;;;;;4.45;1.30;;;16.60;99.90;;;;;;5035027;28;20608;-82
2023/09/14 09:20:53;;;;;;;7.07;1.85;;;16.50;99.90;;;;;;5035099;28;20265;-84
2023/09/14 09:23:21;;;;;;;7.95;1.42;;;17.00;99.90;;;;;;5033240;28;20223;-83
2023/09/14 09:25:50;;;;;;;5.65;1.45;;;17.10;99.90;;;;;;5034984;28;20212;-83
2023/09/14 09:28:17;;;;;;;5.30;1.50;;;17.20;99.90;;;;;;5033754;28;20575;-83
2023/09/14 09:30:45;;;;;;;6.72;2.00;;;17.40;99.90;;;;;;5035156;28;20204;-83
2023/09/14 09:33:12;;;;;;;5.00;1.48;;;17.50;99.90;;;;;;5035519;28;20242;-86
2023/09/14 09:35:39;;;;;;;6.05;1.25;;;17.50;99.90;;;;;;5036773;28;20222;-84
2023/09/14 09:38:14;;;;;;;4.30;1.42;;;17.00;99.90;;;;;;5035885;28;20662;-83
2023/09/14 09:40:42;;;;;;;2.65;1.30;;;17.30;99.90;;;;;;5035670;28;20217;-83
2023/09/14 09:43:10;;;;;;;5.65;1.65;;;17.10;99.90;;;;;;5035417;28;20219;-84
2023/09/14 09:45:41;;;;;;;6.32;1.20;;;17.30;99.90;;;;;;5035756;28;20207;-82
2023/09/14 09:48:11;;;;;;;6.82;1.27;;;17.20;99.90;;;;;;5035340;28;20200;-81
2023/09/14 09:50:37;;;;;;;3.40;1.45;;;16.80;99.90;;;;;;5034301;28;20203;-80
2023/09/14 09:53:09;;;;;;;4.10;1.13;;;17.00;99.90;;;;;;5033908;28;20219;-82
2023/09/14 09:55:37;;;;;;;7.13;1.40;;;17.10;99.90;;;;;;5030166;28;20262;-84
2023/09/14 09:58:06;;;;;;;10.05;1.40;;;16.90;99.90;;;;;;5035543;28;20689;-84
2023/09/14 10:00:36;;;;;;;3.20;1.52;;;16.50;99.90;;;;;;5035305;28;20247;-84
2023/09/14 10:03:03;;;;;;;7.80;1.77;;;16.90;99.90;;;;;;5030891;28;20726;-81
2023/09/14 10:05:33;;;;;;;4.70;1.45;;;17.20;99.90;;;;;;5023547;28;20226;-83
2023/09/14 10:08:02;;;;;;;2.85;1.00;;;17.40;99.90;;;;;;5018359;28;20226;-82
2023/09/14 10:10:30;;;;;;;2.28;0.80;;;18.10;99.90;;;;;;5026915;28;20607;-84
2023/09/14 10:12:59;;;;;;;5.07;1.35;;;18.90;5.20;;;;;;5024748;28;20281;-83
2023/09/14 10:15:27;;;;;;;4.78;1.50;;;18.70;1.00;;;;;;5034868;28;20211;-83
2023/09/14 10:17:55;;;;;;;2.13;0.93;;;19.40;1.00;;;;;;5035034;28;20200;-84
2023/09/14 10:20:23;;;;;;;5.28;1.40;;;19.10;1.00;;;;;;5035181;28;20238;-82
2023/09/14 10:22:52;;;;;;;2.05;0.90;;;18.50;1.00;;;;;;5034748;28;20230;-82
2023/09/14 10:25:21;;;;;;;6.25;1.40;;;19.40;1.00;;;;;;5035188;28;20207;-81
2023/09/14 10:27:48;;;;;;;6.65;1.45;;;19.40;1.00;;;;;;5035537;28;20207;-82
2023/09/14 10:30:17;;;;;;;4.30;1.08;;;18.70;1.00;;;;;;5034456;28;20200;-84
2023/09/14 10:32:47;;;;;;;4.95;1.20;;;18.60;1.00;;;;;;5035260;28;20234;-82
2023/09/14 10:35:14;;;;;;;5.85;1.10;;;18.50;1.00;;;;;;5034786;28;20204;-84
2023/09/14 10:37:44;;;;;;;2.47;0.77;;;18.50;1.00;;;;;;5034200;28;20583;-84
2023/09/14 10:40:13;;;;;;;6.35;1.58;;;18.80;1.00;;;;;;5034443;28;20571;-84
2023/09/14 10:42:41;;;;;;;5.78;2.00;;;18.70;99.90;;;;;;5034925;28;20229;-82
2023/09/14 10:45:09;;;;;;;6.78;1.90;;;18.20;56.20;;;;;;5034827;28;20265;-80
2023/09/14 10:47:38;;;;;;;5.90;1.60;;;18.40;99.90;;;;;;5034561;28;20204;-83
2023/09/14 10:50:07;;;;;;;4.88;1.40;;;18.80;99.90;;;;;;5035188;28;20208;-85
2023/09/14 10:52:34;;;;;;;3.08;1.38;;;18.50;1.00;;;;;;5035277;28;20695;-84
2023/09/14 10:55:04;;;;;;;5.65;1.77;;;18.10;1.00;;;;;;5034411;28;20234;-84
2023/09/14 10:57:32;;;;;;;4.72;1.50;;;18.20;1.00;;;;;;5034563;28;20203;-81
2023/09/14 11:00:00;;;;;;;5.78;1.83;;;18.30;1.00;;;;;;5033953;28;20698;-80
2023/09/14 11:02:58;;;;;;;7.03;1.67;;;18.30;1.00;;;;;;5033664;28;20215;-81
2023/09/14 11:05:39;;;;;;;4.22;1.50;;;18.80;1.00;;;;;;5029365;28;20326;-83
2023/09/14 11:08:05;;;;;;;4.78;1.40;;;18.20;1.00;;;;;;5037943;28;20208;-83
2023/09/14 11:10:34;;;;;;;4.88;1.70;;;17.90;1.00;;;;;;5037878;28;20204;-83
2023/09/14 11:13:30;;;;;;;6.10;1.58;;;17.80;1.00;;;;;;5037634;28;20227;-85
2023/09/14 11:16:04;;;;;;;4.93;1.90;;;17.90;1.00;;;;;;5037719;28;20200;-84
2023/09/14 11:18:36;;;;;;;4.45;1.20;;;17.50;1.00;;;;;;5037778;28;20204;-84
2023/09/14 11:21:03;;;;;;;6.38;1.73;;;17.70;1.00;;;;;;5037644;28;20220;-84
2023/09/14 11:23:35;;;;;;;8.43;1.58;;;17.50;1.00;;;;;;5038040;28;20314;-84
2023/09/14 11:26:03;;;;;;;5.45;1.85;;;17.50;1.00;;;;;;5037760;28;20666;-84
2023/09/14 11:28:33;;;;;;;4.53;1.55;;;17.80;1.00;;;;;;5037393;28;20655;-81
2023/09/14 11:31:02;;;;;;;3.55;1.60;;;17.90;1.00;;;;;;5036737;28;20207;-83
2023/09/14 11:33:32;;;;;;;4.65;1.75;;;18.30;1.00;;;;;;5037898;28;20251;-84
2023/09/14 11:36:01;;;;;;;4.40;1.50;;;17.90;1.00;;;;;;5037173;28;20203;-83
2023/09/14 11:38:28;;;;;;;5.10;1.80;;;18.10;1.00;;;;;;5037227;28;20208;-84
2023/09/14 11:40:54;;;;;;;7.55;1.85;;;18.30;1.00;;;;;;5036917;28;20223;-81
2023/09/14 11:43:22;;;;;;;4.95;1.92;;;18.10;1.00;;;;;;5037708;28;20223;-81
2023/09/14 11:45:53;;;;;;;4.97;1.40;;;18.20;1.00;;;;;;5036986;28;20208;-79
2023/09/14 11:48:20;;;;;;;5.65;1.50;;;19.00;99.90;;;;;;5037252;28;20194;-82
2023/09/14 11:50:48;;;;;;;4.88;1.83;;;19.30;99.90;;;;;;5036949;28;20200;-80
2023/09/14 11:53:18;;;;;;;6.03;1.58;;;19.30;99.90;;;;;;5017352;28;20253;-80
2023/09/14 11:55:45;;;;;;;4.80;1.88;;;19.10;99.90;;;;;;5016591;28;20208;-81
2023/09/14 11:58:13;;;;;;;3.25;1.58;;;19.50;99.90;;;;;;5037031;28;20207;-84
2023/09/14 12:00:43;;;;;;;5.00;1.50;;;20.00;99.90;;;;;;5037196;28;20231;-82
2023/09/14 12:03:12;;;;;;;6.13;1.65;;;19.70;99.90;;;;;;5036702;28;20231;-81
2023/09/14 12:05:38;;;;;;;4.05;1.30;;;19.40;99.90;;;;;;5035667;28;20210;-82
2023/09/14 12:08:10;;;;;;;5.55;1.33;;;19.40;99.90;;;;;;5036881;28;20214;-82
2023/09/14 12:10:37;;;;;;;6.63;1.73;;;19.70;99.90;;;;;;5037123;28;20558;-83
2023/09/14 12:13:12;;;;;;;4.32;1.42;;;20.30;99.90;;;;;;5035413;28;20226;-82
2023/09/14 12:15:39;;;;;;;4.63;1.65;;;19.60;99.90;;;;;;5036991;28;20578;-82
2023/09/14 12:18:06;;;;;;;7.03;1.58;;;19.00;52.80;;;;;;5036314;28;20294;-83
2023/09/14 12:20:36;;;;;;;4.78;1.73;;;18.50;88.00;;;;;;5036237;28;20223;-83
2023/09/14 12:23:04;;;;;;;8.45;1.95;;;18.80;99.90;;;;;;5036213;28;20219;-81
2023/09/14 12:25:31;;;;;;;8.32;2.13;;;19.70;99.90;;;;;;5037250;28;20728;-81
2023/09/14 12:27:58;;;;;;;2.90;1.42;;;20.10;99.90;;;;;;5037370;28;20621;-82
2023/09/14 12:30:25;;;;;;;5.50;1.60;;;20.00;99.90;;;;;;5036857;28;20254;-83
2023/09/14 12:32:52;;;;;;;3.22;2.38;;;19.60;7.50;;;;;;5036477;28;20228;-82
2023/09/14 12:35:19;;;;;;;6.00;1.58;;;19.20;25.20;;;;;;5034067;28;20200;-80
2023/09/14 12:37:48;;;;;;;11.23;1.50;;;19.60;90.10;;;;;;5035514;28;20222;-82
2023/09/14 12:40:15;;;;;;;5.25;1.65;;;20.30;77.70;;;;;;5035564;28;20226;-82
2023/09/14 12:42:43;;;;;;;5.60;1.40;;;20.80;99.90;;;;;;5035359;28;20287;-82
2023/09/14 12:45:12;;;;;;;4.25;1.70;;;21.00;97.80;;;;;;5036460;28;20208;-83
2023/09/14 12:47:40;;;;;;;3.90;1.70;;;19.70;60.20;;;;;;5036397;28;20262;-78
2023/09/14 12:50:15;;;;;;;4.47;1.30;;;19.50;36.80;;;;;;5036796;28;20288;-83
2023/09/14 12:52:42;;;;;;;2.78;1.40;;;19.60;1.00;;;;;;5036605;28;20242;-84
2023/09/14 12:55:16;;;;;;;4.07;1.73;;;20.50;41.50;;;;;;5036616;28;20277;-82
2023/09/14 12:57:45;;;;;;;2.72;1.58;;;21.40;92.50;;;;;;5036744;28;20211;-81